0031 UTC 31 August 2014 found at http://aviationweather.gov/adds/metars/
 
METAR text: KMNH 310013Z AUTO 19007KT 10SM BKN110 20/06 A3009 RMK AO2
Conditions at: KMNH (MONUMENT/ELBERT , CO, US) observed 0013 UTC 31 August 2014
Temperature: 20.0°C (68°F)
Dewpoint: 6.0°C (43°F) [RH = 40%]
Pressure (altimeter): 30.09 inches Hg (1019.0 mb)
Winds: from the S (190 degrees) at 8 MPH (7 knots; 3.6 m/s)
Visibility: 10 or more miles (16+ km)
Ceiling: 11000 feet AGL
Clouds: broken clouds at 11000 feet AGL
Weather: automated observation with no human augmentation;
there may or may not be significant weather present at this time

METAR text: KMNH 302353Z AUTO 17007KT 10SM SCT110 20/06 A3009 RMK AO2
Conditions at: KMNH (MONUMENT/ELBERT , CO, US) observed 2353 UTC 30 August 2014
Temperature: 20.0°C (68°F)
Dewpoint: 6.0°C (43°F) [RH = 40%]
Pressure (altimeter): 30.09 inches Hg (1019.0 mb)
Winds: from the S (170 degrees) at 8 MPH (7 knots; 3.6 m/s)
Visibility: 10 or more miles (16+ km)
Ceiling: at least 12,000 feet AGL
Clouds: scattered clouds at 11000 feet AGL
Weather: automated observation with no human augmentation;
there may or may not be significant weather present at this time

METAR text: KMNH 302332Z AUTO 15009G17KT 10SM CLR 21/04 A3009 RMK AO2
Conditions at: KMNH (MONUMENT/ELBERT , CO, US) observed 2332 UTC 30 August 2014
Temperature: 21.0°C (70°F)
Dewpoint: 4.0°C (39°F) [RH = 33%]
Pressure (altimeter): 30.09 inches Hg (1019.0 mb)
Winds: from the SSE (150 degrees) at 10 MPH (9 knots; 4.7 m/sgusting to 20 MPH (17 knots; 8.8 m/s)
Visibility: 10 or more miles (16+ km)
Ceiling: at least 12,000 feet AGL
Clouds: sky clear below 12,000 feet AGL
Weather: automated observation with no human augmentation;
there may or may not be significant weather present at this time

METAR text: KMNH 302313Z AUTO 16010G16KT 10SM CLR 21/05 A3009 RMK AO2
Conditions at: KMNH (MONUMENT/ELBERT , CO, US) observed 2313 UTC 30 August 2014
Temperature: 21.0°C (70°F)
Dewpoint: 5.0°C (41°F) [RH = 35%]
Pressure (altimeter): 30.09 inches Hg (1019.0 mb)
Winds: from the SSE (160 degrees) at 12 MPH (10 knots; 5.2 m/sgusting to 18 MPH (16 knots; 8.3 m/s)
Visibility: 10 or more miles (16+ km)
Ceiling: at least 12,000 feet AGL
Clouds: sky clear below 12,000 feet AGL
Weather: automated observation with no human augmentation;
there may or may not be significant weather present at this time

METAR text: KMNH 302253Z AUTO 18022G28KT 10SM SCT070 SCT080 20/04 A3009 RMK AO2
Conditions at: KMNH (MONUMENT/ELBERT , CO, US) observed 2253 UTC 30 August 2014
Temperature: 20.0°C (68°F)
Dewpoint: 4.0°C (39°F) [RH = 35%]
Pressure (altimeter): 30.09 inches Hg (1019.0 mb)
Winds: from the S (180 degrees) at 25 MPH (22 knots; 11.4 m/sgusting to 32 MPH (28 knots; 14.6 m/s)
Visibility: 10 or more miles (16+ km)
Ceiling: at least 12,000 feet AGL
Clouds: scattered clouds at 7000 feet AGL
scattered clouds at 8000 feet AGL
Weather: automated observation with no human augmentation;
there may or may not be significant weather present at this time

METAR text: KMNH 302233Z AUTO 25007KT 10SM -RA SCT028 BKN080 OVC090 19/05 A3010 RMK AO2
Conditions at: KMNH (MONUMENT/ELBERT , CO, US) observed 2233 UTC 30 August 2014
Temperature: 19.0°C (66°F)
Dewpoint: 5.0°C (41°F) [RH = 40%]
Pressure (altimeter): 30.10 inches Hg (1019.4 mb)
Winds: from the WSW (250 degrees) at 8 MPH (7 knots; 3.6 m/s)
Visibility: 10 or more miles (16+ km)
Ceiling: 8000 feet AGL
Clouds: scattered clouds at 2800 feet AGL
broken clouds at 8000 feet AGL
overcast cloud deck at 9000 feet AGL
Weather: -RA  (light rain)

METAR text: KMNH 302213Z AUTO 26010G14KT 10SM BKN100 BKN120 22/05 A3009 RMK AO2
Conditions at: KMNH (MONUMENT/ELBERT , CO, US) observed 2213 UTC 30 August 2014
Temperature: 22.0°C (72°F)
Dewpoint: 5.0°C (41°F) [RH = 33%]
Pressure (altimeter): 30.09 inches Hg (1019.0 mb)
Winds: from the W (260 degrees) at 12 MPH (10 knots; 5.2 m/sgusting to 16 MPH (14 knots; 7.3 m/s)
Visibility: 10 or more miles (16+ km)
Ceiling: 10000 feet AGL
Clouds: broken clouds at 10000 feet AGL
broken clouds at 12000 feet AGL
Weather: automated observation with no human augmentation;
there may or may not be significant weather present at this time

METAR text: KMNH 302153Z AUTO 18004KT 10SM BKN100 23/05 A3008 RMK AO2
Conditions at: KMNH (MONUMENT/ELBERT , CO, US) observed 2153 UTC 30 August 2014
Temperature: 23.0°C (73°F)
Dewpoint: 5.0°C (41°F) [RH = 31%]
Pressure (altimeter): 30.08 inches Hg (1018.7 mb)
Winds: from the S (180 degrees) at 5 MPH (4 knots; 2.1 m/s)
Visibility: 10 or more miles (16+ km)
Ceiling: 10000 feet AGL
Clouds: broken clouds at 10000 feet AGL
Weather: automated observation with no human augmentation;
there may or may not be significant weather present at this time

METAR text: KMNH 302133Z AUTO 00000KT 10SM SCT110 23/02 A3008 RMK AO2
Conditions at: KMNH (MONUMENT/ELBERT , CO, US) observed 2133 UTC 30 August 2014
Temperature: 23.0°C (73°F)
Dewpoint: 2.0°C (36°F) [RH = 25%]
Pressure (altimeter): 30.08 inches Hg (1018.7 mb)
Winds: calm
Visibility: 10 or more miles (16+ km)
Ceiling: at least 12,000 feet AGL
Clouds: scattered clouds at 11000 feet AGL
Weather: automated observation with no human augmentation;
there may or may not be significant weather present at this time

METAR text: KMNH 302113Z AUTO 00000KT 10SM CLR 23/02 A3009 RMK AO2
Conditions at: KMNH (MONUMENT/ELBERT , CO, US) observed 2113 UTC 30 August 2014
Temperature: 23.0°C (73°F)
Dewpoint: 2.0°C (36°F) [RH = 25%]
Pressure (altimeter): 30.09 inches Hg (1019.0 mb)
Winds: calm
Visibility: 10 or more miles (16+ km)
Ceiling: at least 12,000 feet AGL
Clouds: sky clear below 12,000 feet AGL
Weather: automated observation with no human augmentation;
there may or may not be significant weather present at this time

METAR text: KMNH 302053Z AUTO 32005KT 10SM CLR 25/M01 A3009 RMK AO2
Conditions at: KMNH (MONUMENT/ELBERT , CO, US) observed 2053 UTC 30 August 2014
Temperature: 25.0°C (77°F)
Dewpoint: -1.0°C (30°F) [RH = 18%]
Pressure (altimeter): 30.09 inches Hg (1019.0 mb)
Winds: from the NW (320 degrees) at 6 MPH (5 knots; 2.6 m/s)
Visibility: 10 or more miles (16+ km)
Ceiling: at least 12,000 feet AGL
Clouds: sky clear below 12,000 feet AGL
Weather: automated observation with no human augmentation;
there may or may not be significant weather present at this time

METAR text: KMNH 302033Z AUTO 00000KT 10SM CLR 25/00 A3011 RMK AO2
Conditions at: KMNH (MONUMENT/ELBERT , CO, US) observed 2033 UTC 30 August 2014
Temperature: 25.0°C (77°F)
Dewpoint: 0.0°C (32°F) [RH = 19%]
Pressure (altimeter): 30.11 inches Hg (1019.7 mb)
Winds: calm
Visibility: 10 or more miles (16+ km)
Ceiling: at least 12,000 feet AGL
Clouds: sky clear below 12,000 feet AGL
Weather: automated observation with no human augmentation;
there may or may not be significant weather present at this time

METAR text: KMNH 302013Z AUTO 34003KT 10SM CLR 25/00 A3012 RMK AO2
Conditions at: KMNH (MONUMENT/ELBERT , CO, US) observed 2013 UTC 30 August 2014
Temperature: 25.0°C (77°F)
Dewpoint: 0.0°C (32°F) [RH = 19%]
Pressure (altimeter): 30.12 inches Hg (1020.1 mb)
Winds: from the NNW (340 degrees) at 3 MPH (3 knots; 1.6 m/s)
Visibility: 10 or more miles (16+ km)
Ceiling: at least 12,000 feet AGL
Clouds: sky clear below 12,000 feet AGL
Weather: automated observation with no human augmentation;
there may or may not be significant weather present at this time

METAR text: KMNH 301953Z AUTO 32004KT 10SM CLR 25/01 A3013 RMK AO2
Conditions at: KMNH (MONUMENT/ELBERT , CO, US) observed 1953 UTC 30 August 2014
Temperature: 25.0°C (77°F)
Dewpoint: 1.0°C (34°F) [RH = 21%]
Pressure (altimeter): 30.13 inches Hg (1020.4 mb)
Winds: from the NW (320 degrees) at 5 MPH (4 knots; 2.1 m/s)
Visibility: 10 or more miles (16+ km)
Ceiling: at least 12,000 feet AGL
Clouds: sky clear below 12,000 feet AGL
Weather: automated observation with no human augmentation;
there may or may not be significant weather present at this time

METAR text: KMNH 301933Z AUTO 00000KT 10SM CLR 25/01 A3013 RMK AO2
Conditions at: KMNH (MONUMENT/ELBERT , CO, US) observed 1933 UTC 30 August 2014
Temperature: 25.0°C (77°F)
Dewpoint: 1.0°C (34°F) [RH = 21%]
Pressure (altimeter): 30.13 inches Hg (1020.4 mb)
Winds: calm
Visibility: 10 or more miles (16+ km)
Ceiling: at least 12,000 feet AGL
Clouds: sky clear below 12,000 feet AGL
Weather: automated observation with no human augmentation;
there may or may not be significant weather present at this time

METAR text: KMNH 301913Z AUTO 30006KT 10SM CLR 25/03 A3013 RMK AO2
Conditions at: KMNH (MONUMENT/ELBERT , CO, US) observed 1913 UTC 30 August 2014
Temperature: 25.0°C (77°F)
Dewpoint: 3.0°C (37°F) [RH = 24%]
Pressure (altimeter): 30.13 inches Hg (1020.4 mb)
Winds: from the WNW (300 degrees) at 7 MPH (6 knots; 3.1 m/s)
Visibility: 10 or more miles (16+ km)
Ceiling: at least 12,000 feet AGL
Clouds: sky clear below 12,000 feet AGL
Weather: automated observation with no human augmentation;
there may or may not be significant weather present at this time

METAR text: KMNH 301853Z AUTO 27008KT 10SM CLR 24/03 A3013 RMK AO2
Conditions at: KMNH (MONUMENT/ELBERT , CO, US) observed 1853 UTC 30 August 2014
Temperature: 24.0°C (75°F)
Dewpoint: 3.0°C (37°F) [RH = 25%]
Pressure (altimeter): 30.13 inches Hg (1020.4 mb)
Winds: from the W (270 degrees) at 9 MPH (8 knots; 4.2 m/s)
Visibility: 10 or more miles (16+ km)
Ceiling: at least 12,000 feet AGL
Clouds: sky clear below 12,000 feet AGL
Weather: automated observation with no human augmentation;
there may or may not be significant weather present at this time

METAR text: KMNH 301833Z AUTO 19008KT 10SM CLR 24/02 A3015 RMK AO2
Conditions at: KMNH (MONUMENT/ELBERT , CO, US) observed 1833 UTC 30 August 2014
Temperature: 24.0°C (75°F)
Dewpoint: 2.0°C (36°F) [RH = 24%]
Pressure (altimeter): 30.15 inches Hg (1021.1 mb)
Winds: from the S (190 degrees) at 9 MPH (8 knots; 4.2 m/s)
Visibility: 10 or more miles (16+ km)
Ceiling: at least 12,000 feet AGL
Clouds: sky clear below 12,000 feet AGL
Weather: automated observation with no human augmentation;
there may or may not be significant weather present at this time

METAR text: KMNH 301813Z AUTO 22008KT 10SM CLR 24/03 A3015 RMK AO2
Conditions at: KMNH (MONUMENT/ELBERT , CO, US) observed 1813 UTC 30 August 2014
Temperature: 24.0°C (75°F)
Dewpoint: 3.0°C (37°F) [RH = 25%]
Pressure (altimeter): 30.15 inches Hg (1021.1 mb)
Winds: from the SW (220 degrees) at 9 MPH (8 knots; 4.2 m/s)
Visibility: 10 or more miles (16+ km)
Ceiling: at least 12,000 feet AGL
Clouds: sky clear below 12,000 feet AGL
Weather: automated observation with no human augmentation;
there may or may not be significant weather present at this time

METAR text: KMNH 301753Z AUTO 23009G14KT 10SM CLR 23/03 A3016 RMK AO2
Conditions at: KMNH (MONUMENT/ELBERT , CO, US) observed 1753 UTC 30 August 2014
Temperature: 23.0°C (73°F)
Dewpoint: 3.0°C (37°F) [RH = 27%]
Pressure (altimeter): 30.16 inches Hg (1021.4 mb)
Winds: from the SW (230 degrees) at 10 MPH (9 knots; 4.7 m/sgusting to 16 MPH (14 knots; 7.3 m/s)
Visibility: 10 or more miles (16+ km)
Ceiling: at least 12,000 feet AGL
Clouds: sky clear below 12,000 feet AGL
Weather: automated observation with no human augmentation;
there may or may not be significant weather present at this time

METAR text: KMNH 301733Z AUTO 24009G15KT 10SM CLR 23/03 A3017 RMK AO2
Conditions at: KMNH (MONUMENT/ELBERT , CO, US) observed 1733 UTC 30 August 2014
Temperature: 23.0°C (73°F)
Dewpoint: 3.0°C (37°F) [RH = 27%]
Pressure (altimeter): 30.17 inches Hg (1021.8 mb)
Winds: from the WSW (240 degrees) at 10 MPH (9 knots; 4.7 m/sgusting to 17 MPH (15 knots; 7.8 m/s)
Visibility: 10 or more miles (16+ km)
Ceiling: at least 12,000 feet AGL
Clouds: sky clear below 12,000 feet AGL
Weather: automated observation with no human augmentation;
there may or may not be significant weather present at this time

METAR text: KMNH 301712Z AUTO 23009G14KT 10SM CLR 22/03 A3018 RMK AO2
Conditions at: KMNH (MONUMENT/ELBERT , CO, US) observed 1712 UTC 30 August 2014
Temperature: 22.0°C (72°F)
Dewpoint: 3.0°C (37°F) [RH = 29%]
Pressure (altimeter): 30.18 inches Hg (1022.1 mb)
Winds: from the SW (230 degrees) at 10 MPH (9 knots; 4.7 m/sgusting to 16 MPH (14 knots; 7.3 m/s)
Visibility: 10 or more miles (16+ km)
Ceiling: at least 12,000 feet AGL
Clouds: sky clear below 12,000 feet AGL
Weather: automated observation with no human augmentation;
there may or may not be significant weather present at this time

METAR text: KMNH 301652Z AUTO 22012G15KT 10SM CLR 22/03 A3018 RMK AO2
Conditions at: KMNH (MONUMENT/ELBERT , CO, US) observed 1652 UTC 30 August 2014
Temperature: 22.0°C (72°F)
Dewpoint: 3.0°C (37°F) [RH = 29%]
Pressure (altimeter): 30.18 inches Hg (1022.1 mb)
Winds: from the SW (220 degrees) at 14 MPH (12 knots; 6.2 m/sgusting to 17 MPH (15 knots; 7.8 m/s)
Visibility: 10 or more miles (16+ km)
Ceiling: at least 12,000 feet AGL
Clouds: sky clear below 12,000 feet AGL
Weather: automated observation with no human augmentation;
there may or may not be significant weather present at this time

METAR text: KMNH 301633Z AUTO 23010KT 10SM CLR 21/03 A3018 RMK AO2
Conditions at: KMNH (MONUMENT/ELBERT , CO, US) observed 1633 UTC 30 August 2014
Temperature: 21.0°C (70°F)
Dewpoint: 3.0°C (37°F) [RH = 30%]
Pressure (altimeter): 30.18 inches Hg (1022.1 mb)
Winds: from the SW (230 degrees) at 12 MPH (10 knots; 5.2 m/s)
Visibility: 10 or more miles (16+ km)
Ceiling: at least 12,000 feet AGL
Clouds: sky clear below 12,000 feet AGL
Weather: automated observation with no human augmentation;
there may or may not be significant weather present at this time

METAR text: KMNH 301613Z AUTO 23008KT 10SM CLR 21/04 A3019 RMK AO2
Conditions at: KMNH (MONUMENT/ELBERT , CO, US) observed 1613 UTC 30 August 2014
Temperature: 21.0°C (70°F)
Dewpoint: 4.0°C (39°F) [RH = 33%]
Pressure (altimeter): 30.19 inches Hg (1022.4 mb)
Winds: from the SW (230 degrees) at 9 MPH (8 knots; 4.2 m/s)
Visibility: 10 or more miles (16+ km)
Ceiling: at least 12,000 feet AGL
Clouds: sky clear below 12,000 feet AGL
Weather: automated observation with no human augmentation;
there may or may not be significant weather present at this time

METAR text: KMNH 301553Z AUTO 22009KT 10SM CLR 21/03 A3020 RMK AO2
Conditions at: KMNH (MONUMENT/ELBERT , CO, US) observed 1553 UTC 30 August 2014
Temperature: 21.0°C (70°F)
Dewpoint: 3.0°C (37°F) [RH = 30%]
Pressure (altimeter): 30.20 inches Hg (1022.8 mb)
Winds: from the SW (220 degrees) at 10 MPH (9 knots; 4.7 m/s)
Visibility: 10 or more miles (16+ km)
Ceiling: at least 12,000 feet AGL
Clouds: sky clear below 12,000 feet AGL
Weather: automated observation with no human augmentation;
there may or may not be significant weather present at this time

METAR text: KMNH 301533Z AUTO 23008KT 10SM CLR 20/03 A3020 RMK AO2
Conditions at: KMNH (MONUMENT/ELBERT , CO, US) observed 1533 UTC 30 August 2014
Temperature: 20.0°C (68°F)
Dewpoint: 3.0°C (37°F) [RH = 32%]
Pressure (altimeter): 30.20 inches Hg (1022.8 mb)
Winds: from the SW (230 degrees) at 9 MPH (8 knots; 4.2 m/s)
Visibility: 10 or more miles (16+ km)
Ceiling: at least 12,000 feet AGL
Clouds: sky clear below 12,000 feet AGL
Weather: automated observation with no human augmentation;
there may or may not be significant weather present at this time

METAR text: KMNH 301513Z AUTO 23008KT 10SM CLR 19/03 A3020 RMK AO2
Conditions at: KMNH (MONUMENT/ELBERT , CO, US) observed 1513 UTC 30 August 2014
Temperature: 19.0°C (66°F)
Dewpoint: 3.0°C (37°F) [RH = 34%]
Pressure (altimeter): 30.20 inches Hg (1022.8 mb)
Winds: from the SW (230 degrees) at 9 MPH (8 knots; 4.2 m/s)
Visibility: 10 or more miles (16+ km)
Ceiling: at least 12,000 feet AGL
Clouds: sky clear below 12,000 feet AGL
Weather: automated observation with no human augmentation;
there may or may not be significant weather present at this time

METAR text: KMNH 301452Z AUTO 22007KT 10SM CLR 18/05 A3021 RMK AO2
Conditions at: KMNH (MONUMENT/ELBERT , CO, US) observed 1452 UTC 30 August 2014
Temperature: 18.0°C (64°F)
Dewpoint: 5.0°C (41°F) [RH = 42%]
Pressure (altimeter): 30.21 inches Hg (1023.1 mb)
Winds: from the SW (220 degrees) at 8 MPH (7 knots; 3.6 m/s)
Visibility: 10 or more miles (16+ km)
Ceiling: at least 12,000 feet AGL
Clouds: sky clear below 12,000 feet AGL
Weather: automated observation with no human augmentation;
there may or may not be significant weather present at this time

METAR text: KMNH 301433Z AUTO 21005KT 10SM CLR 17/06 A3021 RMK AO2
Conditions at: KMNH (MONUMENT/ELBERT , CO, US) observed 1433 UTC 30 August 2014
Temperature: 17.0°C (63°F)
Dewpoint: 6.0°C (43°F) [RH = 48%]
Pressure (altimeter): 30.21 inches Hg (1023.1 mb)
Winds: from the SSW (210 degrees) at 6 MPH (5 knots; 2.6 m/s)
Visibility: 10 or more miles (16+ km)
Ceiling: at least 12,000 feet AGL
Clouds: sky clear below 12,000 feet AGL
Weather: automated observation with no human augmentation;
there may or may not be significant weather present at this time

METAR text: KMNH 301413Z AUTO 18007KT 10SM CLR 15/06 A3021 RMK AO2
Conditions at: KMNH (MONUMENT/ELBERT , CO, US) observed 1413 UTC 30 August 2014
Temperature: 15.0°C (59°F)
Dewpoint: 6.0°C (43°F) [RH = 55%]
Pressure (altimeter): 30.21 inches Hg (1023.1 mb)
Winds: from the S (180 degrees) at 8 MPH (7 knots; 3.6 m/s)
Visibility: 10 or more miles (16+ km)
Ceiling: at least 12,000 feet AGL
Clouds: sky clear below 12,000 feet AGL
Weather: automated observation with no human augmentation;
there may or may not be significant weather present at this time

METAR text: KMNH 301353Z AUTO 19004KT 10SM CLR 13/06 A3021 RMK AO2
Conditions at: KMNH (MONUMENT/ELBERT , CO, US) observed 1353 UTC 30 August 2014
Temperature: 13.0°C (55°F)
Dewpoint: 6.0°C (43°F) [RH = 62%]
Pressure (altimeter): 30.21 inches Hg (1023.1 mb)
Winds: from the S (190 degrees) at 5 MPH (4 knots; 2.1 m/s)
Visibility: 10 or more miles (16+ km)
Ceiling: at least 12,000 feet AGL
Clouds: sky clear below 12,000 feet AGL
Weather: automated observation with no human augmentation;
there may or may not be significant weather present at this time

METAR text: KMNH 301333Z AUTO 20005KT 10SM CLR 12/05 A3021 RMK AO2
Conditions at: KMNH (MONUMENT/ELBERT , CO, US) observed 1333 UTC 30 August 2014
Temperature: 12.0°C (54°F)
Dewpoint: 5.0°C (41°F) [RH = 62%]
Pressure (altimeter): 30.21 inches Hg (1023.1 mb)
Winds: from the SSW (200 degrees) at 6 MPH (5 knots; 2.6 m/s)
Visibility: 10 or more miles (16+ km)
Ceiling: at least 12,000 feet AGL
Clouds: sky clear below 12,000 feet AGL
Weather: automated observation with no human augmentation;
there may or may not be significant weather present at this time

METAR text: KMNH 301312Z AUTO 21007KT 10SM CLR 12/03 A3021 RMK AO2
Conditions at: KMNH (MONUMENT/ELBERT , CO, US) observed 1312 UTC 30 August 2014
Temperature: 12.0°C (54°F)
Dewpoint: 3.0°C (37°F) [RH = 54%]
Pressure (altimeter): 30.21 inches Hg (1023.1 mb)
Winds: from the SSW (210 degrees) at 8 MPH (7 knots; 3.6 m/s)
Visibility: 10 or more miles (16+ km)
Ceiling: at least 12,000 feet AGL
Clouds: sky clear below 12,000 feet AGL
Weather: automated observation with no human augmentation;
there may or may not be significant weather present at this time

METAR text: KMNH 301253Z AUTO 22009KT 10SM CLR 11/03 A3021 RMK AO2
Conditions at: KMNH (MONUMENT/ELBERT , CO, US) observed 1253 UTC 30 August 2014
Temperature: 11.0°C (52°F)
Dewpoint: 3.0°C (37°F) [RH = 58%]
Pressure (altimeter): 30.21 inches Hg (1023.1 mb)
Winds: from the SW (220 degrees) at 10 MPH (9 knots; 4.7 m/s)
Visibility: 10 or more miles (16+ km)
Ceiling: at least 12,000 feet AGL
Clouds: sky clear below 12,000 feet AGL
Weather: automated observation with no human augmentation;
there may or may not be significant weather present at this time

METAR text: KMNH 301233Z AUTO 22009KT 10SM CLR 10/03 A3021 RMK AO2
Conditions at: KMNH (MONUMENT/ELBERT , CO, US) observed 1233 UTC 30 August 2014
Temperature: 10.0°C (50°F)
Dewpoint: 3.0°C (37°F) [RH = 62%]
Pressure (altimeter): 30.21 inches Hg (1023.1 mb)
Winds: from the SW (220 degrees) at 10 MPH (9 knots; 4.7 m/s)
Visibility: 10 or more miles (16+ km)
Ceiling: at least 12,000 feet AGL
Clouds: sky clear below 12,000 feet AGL
Weather: automated observation with no human augmentation;
there may or may not be significant weather present at this time

METAR text: KMNH 301213Z AUTO 20008KT 10SM CLR 08/03 A3021 RMK AO2
Conditions at: KMNH (MONUMENT/ELBERT , CO, US) observed 1213 UTC 30 August 2014
Temperature: 8.0°C (46°F)
Dewpoint: 3.0°C (37°F) [RH = 71%]
Pressure (altimeter): 30.21 inches Hg (1023.1 mb)
Winds: from the SSW (200 degrees) at 9 MPH (8 knots; 4.2 m/s)
Visibility: 10 or more miles (16+ km)
Ceiling: at least 12,000 feet AGL
Clouds: sky clear below 12,000 feet AGL
Weather: automated observation with no human augmentation;
there may or may not be significant weather present at this time

METAR text: KMNH 301153Z AUTO 19007KT 10SM CLR 08/03 A3021 RMK AO2
Conditions at: KMNH (MONUMENT/ELBERT , CO, US) observed 1153 UTC 30 August 2014
Temperature: 8.0°C (46°F)
Dewpoint: 3.0°C (37°F) [RH = 71%]
Pressure (altimeter): 30.21 inches Hg (1023.1 mb)
Winds: from the S (190 degrees) at 8 MPH (7 knots; 3.6 m/s)
Visibility: 10 or more miles (16+ km)
Ceiling: at least 12,000 feet AGL
Clouds: sky clear below 12,000 feet AGL
Weather: automated observation with no human augmentation;
there may or may not be significant weather present at this time

METAR text: KMNH 301133Z AUTO 21007KT 10SM CLR 09/03 A3021 RMK AO2
Conditions at: KMNH (MONUMENT/ELBERT , CO, US) observed 1133 UTC 30 August 2014
Temperature: 9.0°C (48°F)
Dewpoint: 3.0°C (37°F) [RH = 66%]
Pressure (altimeter): 30.21 inches Hg (1023.1 mb)
Winds: from the SSW (210 degrees) at 8 MPH (7 knots; 3.6 m/s)
Visibility: 10 or more miles (16+ km)
Ceiling: at least 12,000 feet AGL
Clouds: sky clear below 12,000 feet AGL
Weather: automated observation with no human augmentation;
there may or may not be significant weather present at this time

METAR text: KMNH 301113Z AUTO 20009KT 10SM CLR 08/03 A3021 RMK AO2
Conditions at: KMNH (MONUMENT/ELBERT , CO, US) observed 1113 UTC 30 August 2014
Temperature: 8.0°C (46°F)
Dewpoint: 3.0°C (37°F) [RH = 71%]
Pressure (altimeter): 30.21 inches Hg (1023.1 mb)
Winds: from the SSW (200 degrees) at 10 MPH (9 knots; 4.7 m/s)
Visibility: 10 or more miles (16+ km)
Ceiling: at least 12,000 feet AGL
Clouds: sky clear below 12,000 feet AGL
Weather: automated observation with no human augmentation;
there may or may not be significant weather present at this time

METAR text: KMNH 301052Z AUTO 20008KT 10SM CLR 10/03 A3021 RMK AO2
Conditions at: KMNH (MONUMENT/ELBERT , CO, US) observed 1052 UTC 30 August 2014
Temperature: 10.0°C (50°F)
Dewpoint: 3.0°C (37°F) [RH = 62%]
Pressure (altimeter): 30.21 inches Hg (1023.1 mb)
Winds: from the SSW (200 degrees) at 9 MPH (8 knots; 4.2 m/s)
Visibility: 10 or more miles (16+ km)
Ceiling: at least 12,000 feet AGL
Clouds: sky clear below 12,000 feet AGL
Weather: automated observation with no human augmentation;
there may or may not be significant weather present at this time

METAR text: KMNH 301033Z AUTO 20009KT 10SM CLR 10/03 A3021 RMK AO2
Conditions at: KMNH (MONUMENT/ELBERT , CO, US) observed 1033 UTC 30 August 2014
Temperature: 10.0°C (50°F)
Dewpoint: 3.0°C (37°F) [RH = 62%]
Pressure (altimeter): 30.21 inches Hg (1023.1 mb)
Winds: from the SSW (200 degrees) at 10 MPH (9 knots; 4.7 m/s)
Visibility: 10 or more miles (16+ km)
Ceiling: at least 12,000 feet AGL
Clouds: sky clear below 12,000 feet AGL
Weather: automated observation with no human augmentation;
there may or may not be significant weather present at this time

METAR text: KMNH 301013Z AUTO 20011KT 10SM CLR 09/03 A3021 RMK AO2
Conditions at: KMNH (MONUMENT/ELBERT , CO, US) observed 1013 UTC 30 August 2014
Temperature: 9.0°C (48°F)
Dewpoint: 3.0°C (37°F) [RH = 66%]
Pressure (altimeter): 30.21 inches Hg (1023.1 mb)
Winds: from the SSW (200 degrees) at 13 MPH (11 knots; 5.7 m/s)
Visibility: 10 or more miles (16+ km)
Ceiling: at least 12,000 feet AGL
Clouds: sky clear below 12,000 feet AGL
Weather: automated observation with no human augmentation;
there may or may not be significant weather present at this time

METAR text: KMNH 300953Z AUTO 21008KT 10SM CLR 11/03 A3021 RMK AO2
Conditions at: KMNH (MONUMENT/ELBERT , CO, US) observed 0953 UTC 30 August 2014
Temperature: 11.0°C (52°F)
Dewpoint: 3.0°C (37°F) [RH = 58%]
Pressure (altimeter): 30.21 inches Hg (1023.1 mb)
Winds: from the SSW (210 degrees) at 9 MPH (8 knots; 4.2 m/s)
Visibility: 10 or more miles (16+ km)
Ceiling: at least 12,000 feet AGL
Clouds: sky clear below 12,000 feet AGL
Weather: automated observation with no human augmentation;
there may or may not be significant weather present at this time

METAR text: KMNH 300932Z AUTO 21008KT 10SM CLR 11/03 A3021 RMK AO2
Conditions at: KMNH (MONUMENT/ELBERT , CO, US) observed 0932 UTC 30 August 2014
Temperature: 11.0°C (52°F)
Dewpoint: 3.0°C (37°F) [RH = 58%]
Pressure (altimeter): 30.21 inches Hg (1023.1 mb)
Winds: from the SSW (210 degrees) at 9 MPH (8 knots; 4.2 m/s)
Visibility: 10 or more miles (16+ km)
Ceiling: at least 12,000 feet AGL
Clouds: sky clear below 12,000 feet AGL
Weather: automated observation with no human augmentation;
there may or may not be significant weather present at this time

METAR text: KMNH 300913Z AUTO 22010KT 10SM CLR 11/03 A3021 RMK AO2
Conditions at: KMNH (MONUMENT/ELBERT , CO, US) observed 0913 UTC 30 August 2014
Temperature: 11.0°C (52°F)
Dewpoint: 3.0°C (37°F) [RH = 58%]
Pressure (altimeter): 30.21 inches Hg (1023.1 mb)
Winds: from the SW (220 degrees) at 12 MPH (10 knots; 5.2 m/s)
Visibility: 10 or more miles (16+ km)
Ceiling: at least 12,000 feet AGL
Clouds: sky clear below 12,000 feet AGL
Weather: automated observation with no human augmentation;
there may or may not be significant weather present at this time

METAR text: KMNH 300853Z AUTO 22010KT 10SM CLR 11/03 A3022 RMK AO2
Conditions at: KMNH (MONUMENT/ELBERT , CO, US) observed 0853 UTC 30 August 2014
Temperature: 11.0°C (52°F)
Dewpoint: 3.0°C (37°F) [RH = 58%]
Pressure (altimeter): 30.22 inches Hg (1023.5 mb)
Winds: from the SW (220 degrees) at 12 MPH (10 knots; 5.2 m/s)
Visibility: 10 or more miles (16+ km)
Ceiling: at least 12,000 feet AGL
Clouds: sky clear below 12,000 feet AGL
Weather: automated observation with no human augmentation;
there may or may not be significant weather present at this time

METAR text: KMNH 300833Z AUTO 23009KT 10SM CLR 11/03 A3023 RMK AO2
Conditions at: KMNH (MONUMENT/ELBERT , CO, US) observed 0833 UTC 30 August 2014
Temperature: 11.0°C (52°F)
Dewpoint: 3.0°C (37°F) [RH = 58%]
Pressure (altimeter): 30.23 inches Hg (1023.8 mb)
Winds: from the SW (230 degrees) at 10 MPH (9 knots; 4.7 m/s)
Visibility: 10 or more miles (16+ km)
Ceiling: at least 12,000 feet AGL
Clouds: sky clear below 12,000 feet AGL
Weather: automated observation with no human augmentation;
there may or may not be significant weather present at this time

METAR text: KMNH 300813Z AUTO 23009KT 10SM CLR 11/03 A3023 RMK AO2
Conditions at: KMNH (MONUMENT/ELBERT , CO, US) observed 0813 UTC 30 August 2014
Temperature: 11.0°C (52°F)
Dewpoint: 3.0°C (37°F) [RH = 58%]
Pressure (altimeter): 30.23 inches Hg (1023.8 mb)
Winds: from the SW (230 degrees) at 10 MPH (9 knots; 4.7 m/s)
Visibility: 10 or more miles (16+ km)
Ceiling: at least 12,000 feet AGL
Clouds: sky clear below 12,000 feet AGL
Weather: automated observation with no human augmentation;
there may or may not be significant weather present at this time

METAR text: KMNH 300753Z AUTO 23010KT 10SM CLR 11/04 A3024 RMK AO2
Conditions at: KMNH (MONUMENT/ELBERT , CO, US) observed 0753 UTC 30 August 2014
Temperature: 11.0°C (52°F)
Dewpoint: 4.0°C (39°F) [RH = 62%]
Pressure (altimeter): 30.24 inches Hg (1024.1 mb)
Winds: from the SW (230 degrees) at 12 MPH (10 knots; 5.2 m/s)
Visibility: 10 or more miles (16+ km)
Ceiling: at least 12,000 feet AGL
Clouds: sky clear below 12,000 feet AGL
Weather: automated observation with no human augmentation;
there may or may not be significant weather present at this time

METAR text: KMNH 300733Z AUTO 21008KT 10SM CLR 11/05 A3024 RMK AO2
Conditions at: KMNH (MONUMENT/ELBERT , CO, US) observed 0733 UTC 30 August 2014
Temperature: 11.0°C (52°F)
Dewpoint: 5.0°C (41°F) [RH = 66%]
Pressure (altimeter): 30.24 inches Hg (1024.1 mb)
Winds: from the SSW (210 degrees) at 9 MPH (8 knots; 4.2 m/s)
Visibility: 10 or more miles (16+ km)
Ceiling: at least 12,000 feet AGL
Clouds: sky clear below 12,000 feet AGL
Weather: automated observation with no human augmentation;
there may or may not be significant weather present at this time

METAR text: KMNH 300713Z AUTO 22009KT 10SM CLR 11/05 A3024 RMK AO2
Conditions at: KMNH (MONUMENT/ELBERT , CO, US) observed 0713 UTC 30 August 2014
Temperature: 11.0°C (52°F)
Dewpoint: 5.0°C (41°F) [RH = 66%]
Pressure (altimeter): 30.24 inches Hg (1024.1 mb)
Winds: from the SW (220 degrees) at 10 MPH (9 knots; 4.7 m/s)
Visibility: 10 or more miles (16+ km)
Ceiling: at least 12,000 feet AGL
Clouds: sky clear below 12,000 feet AGL
Weather: automated observation with no human augmentation;
there may or may not be significant weather present at this time

METAR text: KMNH 300653Z AUTO 22008KT 10SM CLR 09/05 A3025 RMK AO2
Conditions at: KMNH (MONUMENT/ELBERT , CO, US) observed 0653 UTC 30 August 2014
Temperature: 9.0°C (48°F)
Dewpoint: 5.0°C (41°F) [RH = 76%]
Pressure (altimeter): 30.25 inches Hg (1024.5 mb)
Winds: from the SW (220 degrees) at 9 MPH (8 knots; 4.2 m/s)
Visibility: 10 or more miles (16+ km)
Ceiling: at least 12,000 feet AGL
Clouds: sky clear below 12,000 feet AGL
Weather: automated observation with no human augmentation;
there may or may not be significant weather present at this time

METAR text: KMNH 300633Z AUTO 21007KT 10SM CLR 09/06 A3025 RMK AO2
Conditions at: KMNH (MONUMENT/ELBERT , CO, US) observed 0633 UTC 30 August 2014
Temperature: 9.0°C (48°F)
Dewpoint: 6.0°C (43°F) [RH = 81%]
Pressure (altimeter): 30.25 inches Hg (1024.5 mb)
Winds: from the SSW (210 degrees) at 8 MPH (7 knots; 3.6 m/s)
Visibility: 10 or more miles (16+ km)
Ceiling: at least 12,000 feet AGL
Clouds: sky clear below 12,000 feet AGL
Weather: automated observation with no human augmentation;
there may or may not be significant weather present at this time

METAR text: KMNH 300613Z AUTO 21006KT 10SM CLR 10/06 A3025 RMK AO2
Conditions at: KMNH (MONUMENT/ELBERT , CO, US) observed 0613 UTC 30 August 2014
Temperature: 10.0°C (50°F)
Dewpoint: 6.0°C (43°F) [RH = 76%]
Pressure (altimeter): 30.25 inches Hg (1024.5 mb)
Winds: from the SSW (210 degrees) at 7 MPH (6 knots; 3.1 m/s)
Visibility: 10 or more miles (16+ km)
Ceiling: at least 12,000 feet AGL
Clouds: sky clear below 12,000 feet AGL
Weather: automated observation with no human augmentation;
there may or may not be significant weather present at this time

METAR text: KMNH 300553Z AUTO 22007KT 10SM CLR 10/06 A3026 RMK AO2
Conditions at: KMNH (MONUMENT/ELBERT , CO, US) observed 0553 UTC 30 August 2014
Temperature: 10.0°C (50°F)
Dewpoint: 6.0°C (43°F) [RH = 76%]
Pressure (altimeter): 30.26 inches Hg (1024.8 mb)
Winds: from the SW (220 degrees) at 8 MPH (7 knots; 3.6 m/s)
Visibility: 10 or more miles (16+ km)
Ceiling: at least 12,000 feet AGL
Clouds: sky clear below 12,000 feet AGL
Weather: automated observation with no human augmentation;
there may or may not be significant weather present at this time

METAR text: KMNH 300533Z AUTO 20007KT 10SM CLR 11/06 A3026 RMK AO2
Conditions at: KMNH (MONUMENT/ELBERT , CO, US) observed 0533 UTC 30 August 2014
Temperature: 11.0°C (52°F)
Dewpoint: 6.0°C (43°F) [RH = 71%]
Pressure (altimeter): 30.26 inches Hg (1024.8 mb)
Winds: from the SSW (200 degrees) at 8 MPH (7 knots; 3.6 m/s)
Visibility: 10 or more miles (16+ km)
Ceiling: at least 12,000 feet AGL
Clouds: sky clear below 12,000 feet AGL
Weather: automated observation with no human augmentation;
there may or may not be significant weather present at this time

METAR text: KMNH 300513Z AUTO 21006KT 10SM CLR 11/06 A3026 RMK AO2
Conditions at: KMNH (MONUMENT/ELBERT , CO, US) observed 0513 UTC 30 August 2014
Temperature: 11.0°C (52°F)
Dewpoint: 6.0°C (43°F) [RH = 71%]
Pressure (altimeter): 30.26 inches Hg (1024.8 mb)
Winds: from the SSW (210 degrees) at 7 MPH (6 knots; 3.1 m/s)
Visibility: 10 or more miles (16+ km)
Ceiling: at least 12,000 feet AGL
Clouds: sky clear below 12,000 feet AGL
Weather: automated observation with no human augmentation;
there may or may not be significant weather present at this time

METAR text: KMNH 300453Z AUTO 21007KT 10SM CLR 10/06 A3028 RMK AO2
Conditions at: KMNH (MONUMENT/ELBERT , CO, US) observed 0453 UTC 30 August 2014
Temperature: 10.0°C (50°F)
Dewpoint: 6.0°C (43°F) [RH = 76%]
Pressure (altimeter): 30.28 inches Hg (1025.5 mb)
Winds: from the SSW (210 degrees) at 8 MPH (7 knots; 3.6 m/s)
Visibility: 10 or more miles (16+ km)
Ceiling: at least 12,000 feet AGL
Clouds: sky clear below 12,000 feet AGL
Weather: automated observation with no human augmentation;
there may or may not be significant weather present at this time

METAR text: KMNH 300433Z AUTO 17006KT 10SM CLR 10/06 A3027 RMK AO2 LTG DSNT NW
Conditions at: KMNH (MONUMENT/ELBERT , CO, US) observed 0433 UTC 30 August 2014
Temperature: 10.0°C (50°F)
Dewpoint: 6.0°C (43°F) [RH = 76%]
Pressure (altimeter): 30.27 inches Hg (1025.1 mb)
Winds: from the S (170 degrees) at 7 MPH (6 knots; 3.1 m/s)
Visibility: 10 or more miles (16+ km)
Ceiling: at least 12,000 feet AGL
Clouds: sky clear below 12,000 feet AGL
Weather: automated observation with no human augmentation;
there may or may not be significant weather present at this time

METAR text: KMNH 300413Z AUTO 23005KT 10SM CLR 10/06 A3027 RMK AO2
Conditions at: KMNH (MONUMENT/ELBERT , CO, US) observed 0413 UTC 30 August 2014
Temperature: 10.0°C (50°F)
Dewpoint: 6.0°C (43°F) [RH = 76%]
Pressure (altimeter): 30.27 inches Hg (1025.1 mb)
Winds: from the SW (230 degrees) at 6 MPH (5 knots; 2.6 m/s)
Visibility: 10 or more miles (16+ km)
Ceiling: at least 12,000 feet AGL
Clouds: sky clear below 12,000 feet AGL
Weather: automated observation with no human augmentation;
there may or may not be significant weather present at this time

METAR text: KMNH 300353Z AUTO 21006KT 10SM CLR 11/06 A3028 RMK AO2 LTG DSNT NW
Conditions at: KMNH (MONUMENT/ELBERT , CO, US) observed 0353 UTC 30 August 2014
Temperature: 11.0°C (52°F)
Dewpoint: 6.0°C (43°F) [RH = 71%]
Pressure (altimeter): 30.28 inches Hg (1025.5 mb)
Winds: from the SSW (210 degrees) at 7 MPH (6 knots; 3.1 m/s)
Visibility: 10 or more miles (16+ km)
Ceiling: at least 12,000 feet AGL
Clouds: sky clear below 12,000 feet AGL
Weather: automated observation with no human augmentation;
there may or may not be significant weather present at this time

METAR text: KMNH 300333Z AUTO 21006KT 10SM CLR 11/06 A3028 RMK AO2
Conditions at: KMNH (MONUMENT/ELBERT , CO, US) observed 0333 UTC 30 August 2014
Temperature: 11.0°C (52°F)
Dewpoint: 6.0°C (43°F) [RH = 71%]
Pressure (altimeter): 30.28 inches Hg (1025.5 mb)
Winds: from the SSW (210 degrees) at 7 MPH (6 knots; 3.1 m/s)
Visibility: 10 or more miles (16+ km)
Ceiling: at least 12,000 feet AGL
Clouds: sky clear below 12,000 feet AGL
Weather: automated observation with no human augmentation;
there may or may not be significant weather present at this time

METAR text: KMNH 300313Z AUTO 21005KT 10SM CLR 11/07 A3028 RMK AO2
Conditions at: KMNH (MONUMENT/ELBERT , CO, US) observed 0313 UTC 30 August 2014
Temperature: 11.0°C (52°F)
Dewpoint: 7.0°C (45°F) [RH = 76%]
Pressure (altimeter): 30.28 inches Hg (1025.5 mb)
Winds: from the SSW (210 degrees) at 6 MPH (5 knots; 2.6 m/s)
Visibility: 10 or more miles (16+ km)
Ceiling: at least 12,000 feet AGL
Clouds: sky clear below 12,000 feet AGL
Weather: automated observation with no human augmentation;
there may or may not be significant weather present at this time

METAR text: KMNH 300253Z AUTO 19004KT 10SM CLR 13/06 A3027 RMK AO2
Conditions at: KMNH (MONUMENT/ELBERT , CO, US) observed 0253 UTC 30 August 2014
Temperature: 13.0°C (55°F)
Dewpoint: 6.0°C (43°F) [RH = 62%]
Pressure (altimeter): 30.27 inches Hg (1025.1 mb)
Winds: from the S (190 degrees) at 5 MPH (4 knots; 2.1 m/s)
Visibility: 10 or more miles (16+ km)
Ceiling: at least 12,000 feet AGL
Clouds: sky clear below 12,000 feet AGL
Weather: automated observation with no human augmentation;
there may or may not be significant weather present at this time

METAR text: KMNH 300233Z AUTO 20005KT 10SM CLR 12/07 A3026 RMK AO2
Conditions at: KMNH (MONUMENT/ELBERT , CO, US) observed 0233 UTC 30 August 2014
Temperature: 12.0°C (54°F)
Dewpoint: 7.0°C (45°F) [RH = 71%]
Pressure (altimeter): 30.26 inches Hg (1024.8 mb)
Winds: from the SSW (200 degrees) at 6 MPH (5 knots; 2.6 m/s)
Visibility: 10 or more miles (16+ km)
Ceiling: at least 12,000 feet AGL
Clouds: sky clear below 12,000 feet AGL
Weather: automated observation with no human augmentation;
there may or may not be significant weather present at this time

METAR text: KMNH 300212Z AUTO 20007KT 10SM CLR 12/07 A3026 RMK AO2 LTG DSNT NW
Conditions at: KMNH (MONUMENT/ELBERT , CO, US) observed 0212 UTC 30 August 2014
Temperature: 12.0°C (54°F)
Dewpoint: 7.0°C (45°F) [RH = 71%]
Pressure (altimeter): 30.26 inches Hg (1024.8 mb)
Winds: from the SSW (200 degrees) at 8 MPH (7 knots; 3.6 m/s)
Visibility: 10 or more miles (16+ km)
Ceiling: at least 12,000 feet AGL
Clouds: sky clear below 12,000 feet AGL
Weather: automated observation with no human augmentation;
there may or may not be significant weather present at this time

METAR text: KMNH 300153Z AUTO 20005KT 10SM CLR 13/07 A3025 RMK AO2
Conditions at: KMNH (MONUMENT/ELBERT , CO, US) observed 0153 UTC 30 August 2014
Temperature: 13.0°C (55°F)
Dewpoint: 7.0°C (45°F) [RH = 67%]
Pressure (altimeter): 30.25 inches Hg (1024.5 mb)
Winds: from the SSW (200 degrees) at 6 MPH (5 knots; 2.6 m/s)
Visibility: 10 or more miles (16+ km)
Ceiling: at least 12,000 feet AGL
Clouds: sky clear below 12,000 feet AGL
Weather: automated observation with no human augmentation;
there may or may not be significant weather present at this time

METAR text: KMNH 300133Z AUTO 23004KT 10SM SCT085 13/07 A3026 RMK AO2
Conditions at: KMNH (MONUMENT/ELBERT , CO, US) observed 0133 UTC 30 August 2014
Temperature: 13.0°C (55°F)
Dewpoint: 7.0°C (45°F) [RH = 67%]
Pressure (altimeter): 30.26 inches Hg (1024.8 mb)
Winds: from the SW (230 degrees) at 5 MPH (4 knots; 2.1 m/s)
Visibility: 10 or more miles (16+ km)
Ceiling: at least 12,000 feet AGL
Clouds: scattered clouds at 8500 feet AGL
Weather: automated observation with no human augmentation;
there may or may not be significant weather present at this time

METAR text: KMNH 300112Z AUTO 25004KT 10SM SCT075 BKN085 OVC110 14/07 A3025 RMK AO2
Conditions at: KMNH (MONUMENT/ELBERT , CO, US) observed 0112 UTC 30 August 2014
Temperature: 14.0°C (57°F)
Dewpoint: 7.0°C (45°F) [RH = 63%]
Pressure (altimeter): 30.25 inches Hg (1024.5 mb)
Winds: from the WSW (250 degrees) at 5 MPH (4 knots; 2.1 m/s)
Visibility: 10 or more miles (16+ km)
Ceiling: 8500 feet AGL
Clouds: scattered clouds at 7500 feet AGL
broken clouds at 8500 feet AGL
overcast cloud deck at 11000 feet AGL
Weather: automated observation with no human augmentation;
there may or may not be significant weather present at this time

METAR text: KMNH 300053Z AUTO 27009KT 10SM BKN110 14/07 A3026 RMK AO2
Conditions at: KMNH (MONUMENT/ELBERT , CO, US) observed 0053 UTC 30 August 2014
Temperature: 14.0°C (57°F)
Dewpoint: 7.0°C (45°F) [RH = 63%]
Pressure (altimeter): 30.26 inches Hg (1024.8 mb)
Winds: from the W (270 degrees) at 10 MPH (9 knots; 4.7 m/s)
Visibility: 10 or more miles (16+ km)
Ceiling: 11000 feet AGL
Clouds: broken clouds at 11000 feet AGL
Weather: automated observation with no human augmentation;
there may or may not be significant weather present at this time

METAR text: KMNH 300033Z AUTO 28004KT 10SM SCT120 15/07 A3024 RMK AO2 LTG DSNT N
Conditions at: KMNH (MONUMENT/ELBERT , CO, US) observed 0033 UTC 30 August 2014
Temperature: 15.0°C (59°F)
Dewpoint: 7.0°C (45°F) [RH = 59%]
Pressure (altimeter): 30.24 inches Hg (1024.1 mb)
Winds: from the W (280 degrees) at 5 MPH (4 knots; 2.1 m/s)
Visibility: 10 or more miles (16+ km)
Ceiling: at least 12,000 feet AGL
Clouds: scattered clouds at 12000 feet AGL
Weather: automated observation with no human augmentation;
there may or may not be significant weather present at this time

METAR text: KMNH 300013Z AUTO 30006KT 10SM VCTS SCT085 15/07 A3026 RMK AO2 LTG DSNT SE
Conditions at: KMNH (MONUMENT/ELBERT , CO, US) observed 0013 UTC 30 August 2014
Temperature: 15.0°C (59°F)
Dewpoint: 7.0°C (45°F) [RH = 59%]
Pressure (altimeter): 30.26 inches Hg (1024.8 mb)
Winds: from the WNW (300 degrees) at 7 MPH (6 knots; 3.1 m/s)
Visibility: 10 or more miles (16+ km)
Ceiling: at least 12,000 feet AGL
Clouds: scattered clouds at 8500 feet AGL
Weather: VCTS  (thunderstorm in vicinity)

METAR text: KMNH 292353Z AUTO 25006KT 10SM BKN080 BKN090 16/06 A3026 RMK AO2 LTG DSNT SE
Conditions at: KMNH (MONUMENT/ELBERT , CO, US) observed 2353 UTC 29 August 2014
Temperature: 16.0°C (61°F)
Dewpoint: 6.0°C (43°F) [RH = 51%]
Pressure (altimeter): 30.26 inches Hg (1024.8 mb)
Winds: from the WSW (250 degrees) at 7 MPH (6 knots; 3.1 m/s)
Visibility: 10 or more miles (16+ km)
Ceiling: 8000 feet AGL
Clouds: broken clouds at 8000 feet AGL
broken clouds at 9000 feet AGL
Weather: automated observation with no human augmentation;
there may or may not be significant weather present at this time

METAR text: KMNH 292333Z AUTO 26009KT 10SM TS BKN070 16/06 A3025 RMK AO2 LTG DSNT SE
Conditions at: KMNH (MONUMENT/ELBERT , CO, US) observed 2333 UTC 29 August 2014
Temperature: 16.0°C (61°F)
Dewpoint: 6.0°C (43°F) [RH = 51%]
Pressure (altimeter): 30.25 inches Hg (1024.5 mb)
Winds: from the W (260 degrees) at 10 MPH (9 knots; 4.7 m/s)
Visibility: 10 or more miles (16+ km)
Ceiling: 7000 feet AGL
Clouds: broken clouds at 7000 feet AGL
Weather: TS  (thunderstorm)

METAR text: KMNH 292313Z AUTO 34008G12KT 10SM SCT070 SCT080 16/05 A3024 RMK AO2 LTG DSNT SE
Conditions at: KMNH (MONUMENT/ELBERT , CO, US) observed 2313 UTC 29 August 2014
Temperature: 16.0°C (61°F)
Dewpoint: 5.0°C (41°F) [RH = 48%]
Pressure (altimeter): 30.24 inches Hg (1024.1 mb)
Winds: from the NNW (340 degrees) at 9 MPH (8 knots; 4.2 m/sgusting to 14 MPH (12 knots; 6.2 m/s)
Visibility: 10 or more miles (16+ km)
Ceiling: at least 12,000 feet AGL
Clouds: scattered clouds at 7000 feet AGL
scattered clouds at 8000 feet AGL
Weather: automated observation with no human augmentation;
there may or may not be significant weather present at this time

METAR text: KMNH 292253Z AUTO 36013G21KT 10SM SCT090 SCT110 16/06 A3023 RMK AO2 LTG DSNT S AND SW
Conditions at: KMNH (MONUMENT/ELBERT , CO, US) observed 2253 UTC 29 August 2014
Temperature: 16.0°C (61°F)
Dewpoint: 6.0°C (43°F) [RH = 51%]
Pressure (altimeter): 30.23 inches Hg (1023.8 mb)
Winds: from the N (360 degrees) at 15 MPH (13 knots; 6.8 m/sgusting to 24 MPH (21 knots; 10.9 m/s)
Visibility: 10 or more miles (16+ km)
Ceiling: at least 12,000 feet AGL
Clouds: scattered clouds at 9000 feet AGL
scattered clouds at 11000 feet AGL
Weather: automated observation with no human augmentation;
there may or may not be significant weather present at this time

METAR text: KMNH 292233Z AUTO 36014G22KT 10SM VCTS SCT110 17/06 A3022 RMK AO2 LTG DSNT NE S AND SW
Conditions at: KMNH (MONUMENT/ELBERT , CO, US) observed 2233 UTC 29 August 2014
Temperature: 17.0°C (63°F)
Dewpoint: 6.0°C (43°F) [RH = 48%]
Pressure (altimeter): 30.22 inches Hg (1023.5 mb)
Winds: from the N (360 degrees) at 16 MPH (14 knots; 7.3 m/sgusting to 25 MPH (22 knots; 11.4 m/s)
Visibility: 10 or more miles (16+ km)
Ceiling: at least 12,000 feet AGL
Clouds: scattered clouds at 11000 feet AGL
Weather: VCTS  (thunderstorm in vicinity)

METAR text: KMNH 292213Z AUTO 36019G27KT 10SM SCT065 SCT090 18/07 A3021 RMK AO2 LTG DSNT ALQS
Conditions at: KMNH (MONUMENT/ELBERT , CO, US) observed 2213 UTC 29 August 2014
Temperature: 18.0°C (64°F)
Dewpoint: 7.0°C (45°F) [RH = 49%]
Pressure (altimeter): 30.21 inches Hg (1023.1 mb)
Winds: from the N (360 degrees) at 22 MPH (19 knots; 9.9 m/sgusting to 31 MPH (27 knots; 14.0 m/s)
Visibility: 10 or more miles (16+ km)
Ceiling: at least 12,000 feet AGL
Clouds: scattered clouds at 6500 feet AGL
scattered clouds at 9000 feet AGL
Weather: automated observation with no human augmentation;
there may or may not be significant weather present at this time

METAR text: KMNH 292152Z AUTO 36008KT 10SM SCT065 SCT120 21/05 A3021 RMK AO2 LTG DSNT W
Conditions at: KMNH (MONUMENT/ELBERT , CO, US) observed 2152 UTC 29 August 2014
Temperature: 21.0°C (70°F)
Dewpoint: 5.0°C (41°F) [RH = 35%]
Pressure (altimeter): 30.21 inches Hg (1023.1 mb)
Winds: from the N (360 degrees) at 9 MPH (8 knots; 4.2 m/s)
Visibility: 10 or more miles (16+ km)
Ceiling: at least 12,000 feet AGL
Clouds: scattered clouds at 6500 feet AGL
scattered clouds at 12000 feet AGL
Weather: automated observation with no human augmentation;
there may or may not be significant weather present at this time

METAR text: KMNH 292133Z AUTO 01006KT 10SM CLR 22/04 A3020 RMK AO2 LTG DSNT NW
Conditions at: KMNH (MONUMENT/ELBERT , CO, US) observed 2133 UTC 29 August 2014
Temperature: 22.0°C (72°F)
Dewpoint: 4.0°C (39°F) [RH = 31%]
Pressure (altimeter): 30.20 inches Hg (1022.8 mb)
Winds: from the N (10 degrees) at 7 MPH (6 knots; 3.1 m/s)
Visibility: 10 or more miles (16+ km)
Ceiling: at least 12,000 feet AGL
Clouds: sky clear below 12,000 feet AGL
Weather: automated observation with no human augmentation;
there may or may not be significant weather present at this time

METAR text: KMNH 292113Z AUTO 04009KT 10SM SCT110 22/05 A3019 RMK AO2 LTG DSNT S AND NW
Conditions at: KMNH (MONUMENT/ELBERT , CO, US) observed 2113 UTC 29 August 2014
Temperature: 22.0°C (72°F)
Dewpoint: 5.0°C (41°F) [RH = 33%]
Pressure (altimeter): 30.19 inches Hg (1022.4 mb)
Winds: from the NE (40 degrees) at 10 MPH (9 knots; 4.7 m/s)
Visibility: 10 or more miles (16+ km)
Ceiling: at least 12,000 feet AGL
Clouds: scattered clouds at 11000 feet AGL
Weather: automated observation with no human augmentation;
there may or may not be significant weather present at this time

METAR text: KMNH 292053Z AUTO 04009KT 10SM SCT120 22/05 A3019 RMK AO2 LTG DSNT W
Conditions at: KMNH (MONUMENT/ELBERT , CO, US) observed 2053 UTC 29 August 2014
Temperature: 22.0°C (72°F)
Dewpoint: 5.0°C (41°F) [RH = 33%]
Pressure (altimeter): 30.19 inches Hg (1022.4 mb)
Winds: from the NE (40 degrees) at 10 MPH (9 knots; 4.7 m/s)
Visibility: 10 or more miles (16+ km)
Ceiling: at least 12,000 feet AGL
Clouds: scattered clouds at 12000 feet AGL
Weather: automated observation with no human augmentation;
there may or may not be significant weather present at this time

METAR text: KMNH 292033Z AUTO 36006KT 10SM CLR 22/05 A3020 RMK AO2 LTG DSNT NW
Conditions at: KMNH (MONUMENT/ELBERT , CO, US) observed 2033 UTC 29 August 2014
Temperature: 22.0°C (72°F)
Dewpoint: 5.0°C (41°F) [RH = 33%]
Pressure (altimeter): 30.20 inches Hg (1022.8 mb)
Winds: from the N (360 degrees) at 7 MPH (6 knots; 3.1 m/s)
Visibility: 10 or more miles (16+ km)
Ceiling: at least 12,000 feet AGL
Clouds: sky clear below 12,000 feet AGL
Weather: automated observation with no human augmentation;
there may or may not be significant weather present at this time

METAR text: KMNH 292013Z AUTO 36006KT 10SM CLR 21/04 A3021 RMK AO2
Conditions at: KMNH (MONUMENT/ELBERT , CO, US) observed 2013 UTC 29 August 2014
Temperature: 21.0°C (70°F)
Dewpoint: 4.0°C (39°F) [RH = 33%]
Pressure (altimeter): 30.21 inches Hg (1023.1 mb)
Winds: from the N (360 degrees) at 7 MPH (6 knots; 3.1 m/s)
Visibility: 10 or more miles (16+ km)
Ceiling: at least 12,000 feet AGL
Clouds: sky clear below 12,000 feet AGL
Weather: automated observation with no human augmentation;
there may or may not be significant weather present at this time

METAR text: KMNH 291953Z AUTO 04009KT 10SM CLR 22/05 A3021 RMK AO2
Conditions at: KMNH (MONUMENT/ELBERT , CO, US) observed 1953 UTC 29 August 2014
Temperature: 22.0°C (72°F)
Dewpoint: 5.0°C (41°F) [RH = 33%]
Pressure (altimeter): 30.21 inches Hg (1023.1 mb)
Winds: from the NE (40 degrees) at 10 MPH (9 knots; 4.7 m/s)
Visibility: 10 or more miles (16+ km)
Ceiling: at least 12,000 feet AGL
Clouds: sky clear below 12,000 feet AGL
Weather: automated observation with no human augmentation;
there may or may not be significant weather present at this time

METAR text: KMNH 291932Z AUTO 35007KT 10SM CLR 22/05 A3021 RMK AO2
Conditions at: KMNH (MONUMENT/ELBERT , CO, US) observed 1932 UTC 29 August 2014
Temperature: 22.0°C (72°F)
Dewpoint: 5.0°C (41°F) [RH = 33%]
Pressure (altimeter): 30.21 inches Hg (1023.1 mb)
Winds: from the N (350 degrees) at 8 MPH (7 knots; 3.6 m/s)
Visibility: 10 or more miles (16+ km)
Ceiling: at least 12,000 feet AGL
Clouds: sky clear below 12,000 feet AGL
Weather: automated observation with no human augmentation;
there may or may not be significant weather present at this time

METAR text: KMNH 291913Z AUTO 02005KT 10SM CLR 22/04 A3022 RMK AO2
Conditions at: KMNH (MONUMENT/ELBERT , CO, US) observed 1913 UTC 29 August 2014
Temperature: 22.0°C (72°F)
Dewpoint: 4.0°C (39°F) [RH = 31%]
Pressure (altimeter): 30.22 inches Hg (1023.5 mb)
Winds: from the NNE (20 degrees) at 6 MPH (5 knots; 2.6 m/s)
Visibility: 10 or more miles (16+ km)
Ceiling: at least 12,000 feet AGL
Clouds: sky clear below 12,000 feet AGL
Weather: automated observation with no human augmentation;
there may or may not be significant weather present at this time

METAR text: KMNH 291853Z AUTO 36008KT 10SM CLR 22/05 A3022 RMK AO2
Conditions at: KMNH (MONUMENT/ELBERT , CO, US) observed 1853 UTC 29 August 2014
Temperature: 22.0°C (72°F)
Dewpoint: 5.0°C (41°F) [RH = 33%]
Pressure (altimeter): 30.22 inches Hg (1023.5 mb)
Winds: from the N (360 degrees) at 9 MPH (8 knots; 4.2 m/s)
Visibility: 10 or more miles (16+ km)
Ceiling: at least 12,000 feet AGL
Clouds: sky clear below 12,000 feet AGL
Weather: automated observation with no human augmentation;
there may or may not be significant weather present at this time

METAR text: KMNH 291832Z AUTO 35007KT 10SM CLR 21/05 A3022 RMK AO2
Conditions at: KMNH (MONUMENT/ELBERT , CO, US) observed 1832 UTC 29 August 2014
Temperature: 21.0°C (70°F)
Dewpoint: 5.0°C (41°F) [RH = 35%]
Pressure (altimeter): 30.22 inches Hg (1023.5 mb)
Winds: from the N (350 degrees) at 8 MPH (7 knots; 3.6 m/s)
Visibility: 10 or more miles (16+ km)
Ceiling: at least 12,000 feet AGL
Clouds: sky clear below 12,000 feet AGL
Weather: automated observation with no human augmentation;
there may or may not be significant weather present at this time

METAR text: KMNH 291812Z AUTO 35007G15KT 10SM SCT090 21/04 A3023 RMK AO2
Conditions at: KMNH (MONUMENT/ELBERT , CO, US) observed 1812 UTC 29 August 2014
Temperature: 21.0°C (70°F)
Dewpoint: 4.0°C (39°F) [RH = 33%]
Pressure (altimeter): 30.23 inches Hg (1023.8 mb)
Winds: from the N (350 degrees) at 8 MPH (7 knots; 3.6 m/sgusting to 17 MPH (15 knots; 7.8 m/s)
Visibility: 10 or more miles (16+ km)
Ceiling: at least 12,000 feet AGL
Clouds: scattered clouds at 9000 feet AGL
Weather: automated observation with no human augmentation;
there may or may not be significant weather present at this time

METAR text: KMNH 291753Z AUTO 33007KT 10SM SCT090 21/05 A3023 RMK AO2
Conditions at: KMNH (MONUMENT/ELBERT , CO, US) observed 1753 UTC 29 August 2014
Temperature: 21.0°C (70°F)
Dewpoint: 5.0°C (41°F) [RH = 35%]
Pressure (altimeter): 30.23 inches Hg (1023.8 mb)
Winds: from the NNW (330 degrees) at 8 MPH (7 knots; 3.6 m/s)
Visibility: 10 or more miles (16+ km)
Ceiling: at least 12,000 feet AGL
Clouds: scattered clouds at 9000 feet AGL
Weather: automated observation with no human augmentation;
there may or may not be significant weather present at this time

METAR text: KMNH 291733Z AUTO 34006KT 10SM BKN090 20/05 A3023 RMK AO2
Conditions at: KMNH (MONUMENT/ELBERT , CO, US) observed 1733 UTC 29 August 2014
Temperature: 20.0°C (68°F)
Dewpoint: 5.0°C (41°F) [RH = 37%]
Pressure (altimeter): 30.23 inches Hg (1023.8 mb)
Winds: from the NNW (340 degrees) at 7 MPH (6 knots; 3.1 m/s)
Visibility: 10 or more miles (16+ km)
Ceiling: 9000 feet AGL
Clouds: broken clouds at 9000 feet AGL
Weather: automated observation with no human augmentation;
there may or may not be significant weather present at this time

METAR text: KMNH 291713Z AUTO 34007KT 10SM SCT090 21/05 A3023 RMK AO2
Conditions at: KMNH (MONUMENT/ELBERT , CO, US) observed 1713 UTC 29 August 2014
Temperature: 21.0°C (70°F)
Dewpoint: 5.0°C (41°F) [RH = 35%]
Pressure (altimeter): 30.23 inches Hg (1023.8 mb)
Winds: from the NNW (340 degrees) at 8 MPH (7 knots; 3.6 m/s)
Visibility: 10 or more miles (16+ km)
Ceiling: at least 12,000 feet AGL
Clouds: scattered clouds at 9000 feet AGL
Weather: automated observation with no human augmentation;
there may or may not be significant weather present at this time

METAR text: KMNH 291653Z AUTO 33005KT 10SM SCT090 20/05 A3023 RMK AO2
Conditions at: KMNH (MONUMENT/ELBERT , CO, US) observed 1653 UTC 29 August 2014
Temperature: 20.0°C (68°F)
Dewpoint: 5.0°C (41°F) [RH = 37%]
Pressure (altimeter): 30.23 inches Hg (1023.8 mb)
Winds: from the NNW (330 degrees) at 6 MPH (5 knots; 2.6 m/s)
Visibility: 10 or more miles (16+ km)
Ceiling: at least 12,000 feet AGL
Clouds: scattered clouds at 9000 feet AGL
Weather: automated observation with no human augmentation;
there may or may not be significant weather present at this time

METAR text: KMNH 291633Z AUTO 31007KT 10SM BKN090 20/05 A3023 RMK AO2
Conditions at: KMNH (MONUMENT/ELBERT , CO, US) observed 1633 UTC 29 August 2014
Temperature: 20.0°C (68°F)
Dewpoint: 5.0°C (41°F) [RH = 37%]
Pressure (altimeter): 30.23 inches Hg (1023.8 mb)
Winds: from the NW (310 degrees) at 8 MPH (7 knots; 3.6 m/s)
Visibility: 10 or more miles (16+ km)
Ceiling: 9000 feet AGL
Clouds: broken clouds at 9000 feet AGL
Weather: automated observation with no human augmentation;
there may or may not be significant weather present at this time

METAR text: KMNH 291612Z AUTO 34007KT 10SM BKN090 19/05 A3023 RMK AO2
Conditions at: KMNH (MONUMENT/ELBERT , CO, US) observed 1612 UTC 29 August 2014
Temperature: 19.0°C (66°F)
Dewpoint: 5.0°C (41°F) [RH = 40%]
Pressure (altimeter): 30.23 inches Hg (1023.8 mb)
Winds: from the NNW (340 degrees) at 8 MPH (7 knots; 3.6 m/s)
Visibility: 10 or more miles (16+ km)
Ceiling: 9000 feet AGL
Clouds: broken clouds at 9000 feet AGL
Weather: automated observation with no human augmentation;
there may or may not be significant weather present at this time

METAR text: KMNH 291553Z AUTO 33008KT 10SM BKN080 19/05 A3023 RMK AO2
Conditions at: KMNH (MONUMENT/ELBERT , CO, US) observed 1553 UTC 29 August 2014
Temperature: 19.0°C (66°F)
Dewpoint: 5.0°C (41°F) [RH = 40%]
Pressure (altimeter): 30.23 inches Hg (1023.8 mb)
Winds: from the NNW (330 degrees) at 9 MPH (8 knots; 4.2 m/s)
Visibility: 10 or more miles (16+ km)
Ceiling: 8000 feet AGL
Clouds: broken clouds at 8000 feet AGL
Weather: automated observation with no human augmentation;
there may or may not be significant weather present at this time

METAR text: KMNH 291533Z AUTO 33008KT 10SM SCT080 18/05 A3023 RMK AO2
Conditions at: KMNH (MONUMENT/ELBERT , CO, US) observed 1533 UTC 29 August 2014
Temperature: 18.0°C (64°F)
Dewpoint: 5.0°C (41°F) [RH = 42%]
Pressure (altimeter): 30.23 inches Hg (1023.8 mb)
Winds: from the NNW (330 degrees) at 9 MPH (8 knots; 4.2 m/s)
Visibility: 10 or more miles (16+ km)
Ceiling: at least 12,000 feet AGL
Clouds: scattered clouds at 8000 feet AGL
Weather: automated observation with no human augmentation;
there may or may not be significant weather present at this time

METAR text: KMNH 291512Z AUTO 30007KT 10SM CLR 18/06 A3022 RMK AO2
Conditions at: KMNH (MONUMENT/ELBERT , CO, US) observed 1512 UTC 29 August 2014
Temperature: 18.0°C (64°F)
Dewpoint: 6.0°C (43°F) [RH = 45%]
Pressure (altimeter): 30.22 inches Hg (1023.5 mb)
Winds: from the WNW (300 degrees) at 8 MPH (7 knots; 3.6 m/s)
Visibility: 10 or more miles (16+ km)
Ceiling: at least 12,000 feet AGL
Clouds: sky clear below 12,000 feet AGL
Weather: automated observation with no human augmentation;
there may or may not be significant weather present at this time

METAR text: KMNH 291453Z AUTO 29008KT 10SM CLR 17/06 A3022 RMK AO2
Conditions at: KMNH (MONUMENT/ELBERT , CO, US) observed 1453 UTC 29 August 2014
Temperature: 17.0°C (63°F)
Dewpoint: 6.0°C (43°F) [RH = 48%]
Pressure (altimeter): 30.22 inches Hg (1023.5 mb)
Winds: from the WNW (290 degrees) at 9 MPH (8 knots; 4.2 m/s)
Visibility: 10 or more miles (16+ km)
Ceiling: at least 12,000 feet AGL
Clouds: sky clear below 12,000 feet AGL
Weather: automated observation with no human augmentation;
there may or may not be significant weather present at this time

METAR text: KMNH 291433Z AUTO 27006KT 10SM CLR 16/05 A3022 RMK AO2
Conditions at: KMNH (MONUMENT/ELBERT , CO, US) observed 1433 UTC 29 August 2014
Temperature: 16.0°C (61°F)
Dewpoint: 5.0°C (41°F) [RH = 48%]
Pressure (altimeter): 30.22 inches Hg (1023.5 mb)
Winds: from the W (270 degrees) at 7 MPH (6 knots; 3.1 m/s)
Visibility: 10 or more miles (16+ km)
Ceiling: at least 12,000 feet AGL
Clouds: sky clear below 12,000 feet AGL
Weather: automated observation with no human augmentation;
there may or may not be significant weather present at this time

METAR text: KMNH 291413Z AUTO 26006KT 10SM CLR 15/05 A3022 RMK AO2
Conditions at: KMNH (MONUMENT/ELBERT , CO, US) observed 1413 UTC 29 August 2014
Temperature: 15.0°C (59°F)
Dewpoint: 5.0°C (41°F) [RH = 51%]
Pressure (altimeter): 30.22 inches Hg (1023.5 mb)
Winds: from the W (260 degrees) at 7 MPH (6 knots; 3.1 m/s)
Visibility: 10 or more miles (16+ km)
Ceiling: at least 12,000 feet AGL
Clouds: sky clear below 12,000 feet AGL
Weather: automated observation with no human augmentation;
there may or may not be significant weather present at this time

METAR text: KMNH 291353Z AUTO 26007KT 10SM CLR 13/05 A3021 RMK AO2
Conditions at: KMNH (MONUMENT/ELBERT , CO, US) observed 1353 UTC 29 August 2014
Temperature: 13.0°C (55°F)
Dewpoint: 5.0°C (41°F) [RH = 58%]
Pressure (altimeter): 30.21 inches Hg (1023.1 mb)
Winds: from the W (260 degrees) at 8 MPH (7 knots; 3.6 m/s)
Visibility: 10 or more miles (16+ km)
Ceiling: at least 12,000 feet AGL
Clouds: sky clear below 12,000 feet AGL
Weather: automated observation with no human augmentation;
there may or may not be significant weather present at this time

METAR text: KMNH 291333Z AUTO 25008KT 10SM CLR 12/05 A3021 RMK AO2
Conditions at: KMNH (MONUMENT/ELBERT , CO, US) observed 1333 UTC 29 August 2014
Temperature: 12.0°C (54°F)
Dewpoint: 5.0°C (41°F) [RH = 62%]
Pressure (altimeter): 30.21 inches Hg (1023.1 mb)
Winds: from the WSW (250 degrees) at 9 MPH (8 knots; 4.2 m/s)
Visibility: 10 or more miles (16+ km)
Ceiling: at least 12,000 feet AGL
Clouds: sky clear below 12,000 feet AGL
Weather: automated observation with no human augmentation;
there may or may not be significant weather present at this time

METAR text: KMNH 291313Z AUTO 26008KT 10SM CLR 10/04 A3021 RMK AO2
Conditions at: KMNH (MONUMENT/ELBERT , CO, US) observed 1313 UTC 29 August 2014
Temperature: 10.0°C (50°F)
Dewpoint: 4.0°C (39°F) [RH = 66%]
Pressure (altimeter): 30.21 inches Hg (1023.1 mb)
Winds: from the W (260 degrees) at 9 MPH (8 knots; 4.2 m/s)
Visibility: 10 or more miles (16+ km)
Ceiling: at least 12,000 feet AGL
Clouds: sky clear below 12,000 feet AGL
Weather: automated observation with no human augmentation;
there may or may not be significant weather present at this time

METAR text: KMNH 291253Z AUTO 26008KT 10SM CLR 09/03 A3021 RMK AO2
Conditions at: KMNH (MONUMENT/ELBERT , CO, US) observed 1253 UTC 29 August 2014
Temperature: 9.0°C (48°F)
Dewpoint: 3.0°C (37°F) [RH = 66%]
Pressure (altimeter): 30.21 inches Hg (1023.1 mb)
Winds: from the W (260 degrees) at 9 MPH (8 knots; 4.2 m/s)
Visibility: 10 or more miles (16+ km)
Ceiling: at least 12,000 feet AGL
Clouds: sky clear below 12,000 feet AGL
Weather: automated observation with no human augmentation;
there may or may not be significant weather present at this time

METAR text: KMNH 291233Z AUTO 26008KT 10SM CLR 08/03 A3021 RMK AO2
Conditions at: KMNH (MONUMENT/ELBERT , CO, US) observed 1233 UTC 29 August 2014
Temperature: 8.0°C (46°F)
Dewpoint: 3.0°C (37°F) [RH = 71%]
Pressure (altimeter): 30.21 inches Hg (1023.1 mb)
Winds: from the W (260 degrees) at 9 MPH (8 knots; 4.2 m/s)
Visibility: 10 or more miles (16+ km)
Ceiling: at least 12,000 feet AGL
Clouds: sky clear below 12,000 feet AGL
Weather: automated observation with no human augmentation;
there may or may not be significant weather present at this time